Time;durP1;ratioP1;P1;durP2;ratioP2;P2;SDS_P1;SDS_P2;PMS_P1;PMS_P2;Temp;Humidity;BMP_temperature;BMP_pressure;BME280_temperature;BME280_humidity;BME280_pressure;Samples;Min_cycle;Max_cycle;Signal;HPM_P1;HPM_P2
2022/04/14 00:02:11;;;;;;;12.43;7.97;;;;;;;9.92;100.00;102001.94;5109334;28;20047;-28
2022/04/14 00:04:39;;;;;;;10.38;5.95;;;;;;;9.89;100.00;101998.84;5110885;28;20075;-25
2022/04/14 00:07:07;;;;;;;14.13;8.43;;;;;;;9.85;100.00;102001.31;5111043;28;20039;-27
2022/04/14 00:09:36;;;;;;;14.18;7.60;;;;;;;9.80;100.00;102000.44;5109644;28;20050;-27
2022/04/14 00:12:05;;;;;;;13.65;7.82;;;;;;;9.76;100.00;102008.50;5110930;28;20040;-26
2022/04/14 00:14:34;;;;;;;12.30;7.15;;;;;;;9.74;100.00;102002.34;5110313;28;20056;-27
2022/04/14 00:17:02;;;;;;;10.57;6.75;;;;;;;9.71;100.00;102005.66;5109115;28;20493;-29
2022/04/14 00:19:30;;;;;;;14.73;6.43;;;;;;;9.65;100.00;101996.41;5110655;28;20043;-26
2022/04/14 00:21:58;;;;;;;13.75;7.20;;;;;;;9.64;100.00;102005.03;5110911;28;20043;-28
2022/04/14 00:24:25;;;;;;;13.75;7.78;;;;;;;9.62;100.00;102001.66;5109907;28;20059;-27
2022/04/14 00:26:53;;;;;;;9.88;6.20;;;;;;;9.59;100.00;102003.03;5110526;28;20052;-27
2022/04/14 00:29:21;;;;;;;15.45;7.72;;;;;;;9.57;100.00;102005.28;5110821;28;20047;-28
2022/04/14 00:31:50;;;;;;;15.32;7.57;;;;;;;9.55;100.00;102004.69;5109884;28;20039;-27
2022/04/14 00:34:18;;;;;;;12.07;6.68;;;;;;;9.51;100.00;102014.69;5110467;28;20499;-28
2022/04/14 00:36:45;;;;;;;11.60;6.57;;;;;;;9.48;100.00;102018.00;5110488;28;20143;-27
2022/04/14 00:39:13;;;;;;;11.98;6.90;;;;;;;9.47;100.00;102018.25;5109381;28;20077;-28
2022/04/14 00:41:41;;;;;;;11.23;5.78;;;;;;;9.45;100.00;102020.47;5110207;28;20047;-27
2022/04/14 00:44:09;;;;;;;10.75;6.15;;;;;;;9.43;100.00;102019.88;5110622;28;20126;-28
2022/04/14 00:46:36;;;;;;;14.32;6.63;;;;;;;9.39;100.00;102016.81;5110203;28;20385;-30
2022/04/14 00:49:06;;;;;;;13.57;7.03;;;;;;;9.39;100.00;102018.75;5110484;28;20051;-27
2022/04/14 00:51:34;;;;;;;12.45;6.47;;;;;;;9.37;100.00;102015.38;5109555;28;20807;-32
2022/04/14 00:54:01;;;;;;;12.50;7.30;;;;;;;9.36;100.00;102016.47;5110206;28;20533;-27
2022/04/14 00:56:29;;;;;;;14.35;7.70;;;;;;;9.33;100.00;102015.91;5110116;28;20047;-29
2022/04/14 00:58:57;;;;;;;11.02;6.50;;;;;;;9.31;100.00;102018.09;5109827;28;20131;-31
2022/04/14 01:01:25;;;;;;;11.25;6.80;;;;;;;9.30;100.00;102013.63;5110376;28;20051;-28
2022/04/14 01:03:54;;;;;;;13.93;6.82;;;;;;;9.28;100.00;102013.06;5110412;28;20082;-29
2022/04/14 01:06:23;;;;;;;8.60;6.15;;;;;;;9.26;100.00;102023.63;5109281;28;20078;-26
2022/04/14 01:11:40;;;;;;;13.93;7.18;;;;;;;9.23;100.00;102031.66;5110194;28;20519;-28
2022/04/14 01:14:08;;;;;;;9.88;5.70;;;;;;;9.24;100.00;102030.53;5111208;28;20485;-27
2022/04/14 01:16:36;;;;;;;11.07;5.97;;;;;;;9.24;100.00;102024.97;5113754;27;20293;-27
2022/04/14 01:19:04;;;;;;;15.00;6.43;;;;;;;9.26;100.00;102031.13;5112721;28;20127;-27
2022/04/14 01:21:34;;;;;;;10.75;5.88;;;;;;;9.27;100.00;102032.81;5113241;28;20518;-26
2022/04/14 01:24:03;;;;;;;12.70;5.80;;;;;;;9.30;100.00;102032.28;5112605;28;20484;-26
2022/04/14 01:26:32;;;;;;;11.02;5.97;;;;;;;9.31;100.00;102034.81;5112965;28;20054;-27
2022/04/14 01:29:00;;;;;;;11.40;6.38;;;;;;;9.33;100.00;102027.03;5113668;28;20048;-29
2022/04/14 01:31:27;;;;;;;13.07;7.00;;;;;;;9.35;100.00;102026.78;5113942;28;20054;-26
2022/04/14 01:33:55;;;;;;;11.90;6.20;;;;;;;9.37;100.00;102029.31;5111174;28;20401;-26
2022/04/14 01:36:23;;;;;;;13.75;6.95;;;;;;;9.37;100.00;102030.16;5113594;28;20039;-26
2022/04/14 01:38:51;;;;;;;11.35;6.57;;;;;;;9.40;100.00;102025.97;5113344;28;20047;-27
2022/04/14 01:41:20;;;;;;;14.65;6.70;;;;;;;9.41;100.00;102016.50;5112790;28;20043;-26
2022/04/14 01:43:47;;;;;;;8.38;4.93;;;;;;;9.42;100.00;102023.75;5113376;28;20070;-27
2022/04/14 01:46:15;;;;;;;11.20;5.78;;;;;;;9.43;100.00;102026.28;5111772;28;20122;-26
2022/04/14 01:48:43;;;;;;;9.50;5.55;;;;;;;9.44;100.00;102025.19;5112715;28;20044;-26
2022/04/14 01:51:11;;;;;;;12.07;5.40;;;;;;;9.46;100.00;102020.19;5113312;28;20507;-28
2022/04/14 01:53:38;;;;;;;12.60;5.53;;;;;;;9.50;100.00;102023.31;5113128;28;20094;-27
2022/04/14 01:56:06;;;;;;;11.00;4.72;;;;;;;9.51;100.00;102022.19;5112365;28;20055;-28
2022/04/14 01:58:36;;;;;;;10.38;4.90;;;;;;;9.52;100.00;102021.09;5112967;28;20023;-27
2022/04/14 02:01:04;;;;;;;9.90;5.10;;;;;;;9.53;100.00;102023.63;5102133;28;20050;-29
2022/04/14 02:03:32;;;;;;;7.80;4.38;;;;;;;9.54;100.00;102022.53;5112575;28;20047;-27
2022/04/14 02:05:59;;;;;;;11.02;4.90;;;;;;;9.55;100.00;102015.00;5113305;28;20039;-27
2022/04/14 02:08:27;;;;;;;7.22;4.03;;;;;;;9.57;100.00;102026.72;5112740;28;20054;-29
2022/04/14 02:10:55;;;;;;;7.70;3.75;;;;;;;9.58;100.00;102029.25;5112199;28;20405;-28
2022/04/14 02:13:22;;;;;;;8.02;4.78;;;;;;;9.59;100.00;102030.09;5112646;28;20048;-28
2022/04/14 02:15:51;;;;;;;8.98;4.57;;;;;;;9.62;100.00;102029.53;5112190;28;20051;-27
2022/04/14 02:18:19;;;;;;;8.65;4.50;;;;;;;9.63;100.00;102022.88;5112667;28;20040;-28
2022/04/14 02:20:47;;;;;;;8.35;4.25;;;;;;;9.62;100.00;102019.22;5112487;28;20519;-27
2022/04/14 02:23:15;;;;;;;7.97;4.78;;;;;;;9.63;100.00;102014.50;5111920;28;20047;-29
2022/04/14 02:25:42;;;;;;;10.02;5.25;;;;;;;9.62;100.00;102015.59;5111608;28;20520;-27
2022/04/14 02:28:10;;;;;;;7.60;4.35;;;;;;;9.61;100.00;102025.06;5112789;28;20385;-28
2022/04/14 02:30:38;;;;;;;12.32;5.50;;;;;;;9.60;100.00;102017.81;5111780;28;20056;-27
2022/04/14 02:33:07;;;;;;;8.68;5.22;;;;;;;9.56;100.00;102020.31;5112364;28;20047;-28
2022/04/14 02:35:35;;;;;;;9.98;5.40;;;;;;;9.54;100.00;102016.09;5112377;28;20040;-28
2022/04/14 02:38:03;;;;;;;8.48;4.85;;;;;;;9.52;100.00;102010.78;5111900;28;20464;-30
2022/04/14 02:40:30;;;;;;;10.93;5.57;;;;;;;9.51;100.00;102011.06;5112267;28;20067;-28
2022/04/14 02:42:58;;;;;;;9.88;5.70;;;;;;;9.50;100.00;102010.22;5112330;28;20040;-27
2022/04/14 02:45:27;;;;;;;11.48;5.22;;;;;;;9.50;100.00;102014.94;5100268;28;20515;-26
2022/04/14 02:47:55;;;;;;;11.73;5.82;;;;;;;9.50;100.00;102017.72;5112179;28;20081;-26
2022/04/14 02:50:24;;;;;;;7.55;4.90;;;;;;;9.49;100.00;102019.69;5112060;28;20039;-27
2022/04/14 02:52:54;;;;;;;9.82;5.10;;;;;;;9.49;100.00;102024.41;5111229;28;20089;-26
2022/04/14 02:55:22;;;;;;;12.48;5.50;;;;;;;9.47;100.00;102024.66;5112026;28;20044;-26
2022/04/14 02:57:50;;;;;;;14.10;5.80;;;;;;;9.46;100.00;102016.56;5111305;28;20038;-27
2022/04/14 03:00:18;;;;;;;7.97;5.15;;;;;;;9.44;100.00;102024.34;5111604;28;20497;-27
2022/04/14 03:02:46;;;;;;;9.75;4.65;;;;;;;9.39;100.00;102019.59;5111981;28;20089;-29
2022/04/14 03:05:14;;;;;;;8.65;4.72;;;;;;;9.37;100.00;102029.31;5110837;28;20043;-26
2022/04/14 03:07:45;;;;;;;7.95;4.30;;;;;;;9.34;100.00;102027.88;5110979;28;20540;-27
2022/04/14 03:10:13;;;;;;;11.43;4.03;;;;;;;9.29;100.00;102037.03;5111928;28;20408;-26
2022/04/14 03:12:42;;;;;;;9.05;5.22;;;;;;;9.25;100.00;102027.50;5110832;28;20043;-27
2022/04/14 03:15:10;;;;;;;9.50;4.63;;;;;;;9.22;100.00;102029.97;5111614;28;20044;-26
2022/04/14 03:17:37;;;;;;;13.73;5.57;;;;;;;9.21;100.00;102037.47;5111113;28;20396;-26
2022/04/14 03:20:07;;;;;;;9.57;4.72;;;;;;;9.20;100.00;102041.38;5108603;28;20043;-26
2022/04/14 03:22:35;;;;;;;9.35;4.40;;;;;;;9.19;100.00;102039.69;5109386;28;20047;-27
2022/04/14 03:25:05;;;;;;;8.82;4.55;;;;;;;9.18;100.00;102045.53;5109508;28;20066;-32
2022/04/14 03:27:33;;;;;;;8.55;4.47;;;;;;;9.15;100.00;102037.69;5109036;28;20138;-26
2022/04/14 03:30:01;;;;;;;8.80;4.13;;;;;;;9.11;100.00;102047.66;5109899;28;20051;-26
2022/04/14 03:32:29;;;;;;;9.80;5.43;;;;;;;9.08;100.00;102040.69;5109865;28;20070;-28
2022/04/14 03:34:57;;;;;;;6.28;3.80;;;;;;;9.06;100.00;102036.47;5109405;28;20477;-29
2022/04/14 03:37:24;;;;;;;7.97;3.80;;;;;;;9.04;100.00;102041.44;5110149;28;20481;-29
2022/04/14 03:39:52;;;;;;;6.97;3.55;;;;;;;9.01;100.00;102040.03;5111348;28;20047;-27
2022/04/14 03:42:21;;;;;;;9.05;4.28;;;;;;;8.98;100.00;102046.97;5110327;28;20047;-28
2022/04/14 03:44:49;;;;;;;6.63;4.20;;;;;;;8.95;100.00;102049.44;5110355;28;20043;-28
2022/04/14 03:47:17;;;;;;;8.18;5.28;;;;;;;8.92;100.00;102045.22;5110210;28;20054;-27
2022/04/14 03:49:45;;;;;;;10.80;5.60;;;;;;;8.90;100.00;102043.78;5111242;28;20055;-27
2022/04/14 03:52:12;;;;;;;9.00;4.95;;;;;;;8.88;100.00;102041.28;5107524;28;20043;-26
2022/04/14 03:54:40;;;;;;;10.30;5.45;;;;;;;8.88;100.00;102043.22;5110302;28;20047;-27
2022/04/14 03:57:08;;;;;;;8.52;4.05;;;;;;;8.86;100.00;102045.41;5110499;28;20044;-26
2022/04/14 03:59:37;;;;;;;7.13;3.63;;;;;;;8.83;100.00;102045.91;5107327;28;20058;-31
2022/04/14 04:02:05;;;;;;;5.50;3.45;;;;;;;8.79;100.00;102042.81;5109967;28;20043;-27
2022/04/14 04:04:33;;;;;;;6.72;3.22;;;;;;;8.77;100.00;102044.19;5111060;28;20036;-28
2022/04/14 04:07:01;;;;;;;6.50;3.75;;;;;;;8.73;100.00;102043.03;5110904;28;20055;-28
2022/04/14 04:09:32;;;;;;;5.85;3.47;;;;;;;8.71;100.00;102053.56;5109847;28;20043;-26
2022/04/14 04:12:00;;;;;;;4.30;3.20;;;;;;;8.66;100.00;102047.91;5110666;28;20499;-28
2022/04/14 04:14:28;;;;;;;5.47;2.97;;;;;;;8.63;100.00;102050.13;5110984;28;20054;-25
2022/04/14 04:17:01;;;;;;;;;;;;;;;8.57;100.00;102061.44;5110603;28;20044;-27
2022/04/14 04:19:29;;;;;;;6.65;3.13;;;;;;;8.52;100.00;102056.66;5110862;28;20346;-26
2022/04/14 04:21:56;;;;;;;5.03;2.67;;;;;;;8.58;100.00;102057.56;5110639;28;20048;-28
2022/04/14 04:24:24;;;;;;;9.32;4.65;;;;;;;8.61;100.00;102066.22;5110216;28;20048;-26
2022/04/14 04:26:52;;;;;;;6.18;3.70;;;;;;;8.66;100.00;102061.84;5110763;28;20048;-27
2022/04/14 04:29:20;;;;;;;5.28;3.28;;;;;;;8.68;100.00;102068.00;5110026;28;20054;-27
2022/04/14 04:31:48;;;;;;;10.13;5.68;;;;;;;8.71;100.00;102073.03;5110491;28;20044;-27
2022/04/14 04:34:18;;;;;;;9.05;4.45;;;;;;;8.74;100.00;102066.97;5110467;28;20044;-27
2022/04/14 04:36:45;;;;;;;8.52;5.22;;;;;;;8.76;100.00;102065.63;5109513;28;20058;-26
2022/04/14 04:39:13;;;;;;;16.70;6.55;;;;;;;8.80;100.00;102072.31;5099004;28;20056;-27
2022/04/14 04:41:41;;;;;;;12.93;6.45;;;;;;;8.83;100.00;102073.75;5110320;28;20048;-27
2022/04/14 04:44:09;;;;;;;6.78;4.05;;;;;;;8.83;100.00;102069.03;5109503;28;20044;-28
2022/04/14 04:46:37;;;;;;;6.18;3.58;;;;;;;8.83;100.00;102070.97;5110138;28;20179;-27
2022/04/14 04:49:05;;;;;;;11.43;5.78;;;;;;;8.82;100.00;102069.28;5107924;28;20142;-28
2022/04/14 04:51:34;;;;;;;8.88;5.28;;;;;;;8.82;100.00;102072.06;5113328;28;20043;-26
2022/04/14 04:54:02;;;;;;;9.13;4.78;;;;;;;8.82;100.00;102069.28;5114094;28;20046;-26
2022/04/14 04:56:29;;;;;;;6.22;4.20;;;;;;;8.81;100.00;102076.78;5110825;28;20509;-30
2022/04/14 04:58:58;;;;;;;10.15;4.70;;;;;;;8.80;100.00;102082.63;5113527;28;20060;-27
2022/04/14 05:01:26;;;;;;;9.10;5.28;;;;;;;8.76;100.00;102076.75;5114037;28;20055;-31
2022/04/14 05:03:54;;;;;;;7.63;3.75;;;;;;;8.74;100.00;102078.09;5114203;28;20044;-28
2022/04/14 05:06:22;;;;;;;7.05;4.10;;;;;;;8.71;100.00;102071.09;5113242;27;20187;-29
2022/04/14 05:08:51;;;;;;;5.32;3.30;;;;;;;8.69;100.00;102073.28;5114422;28;20039;-28
2022/04/14 05:11:18;;;;;;;4.28;3.17;;;;;;;8.69;100.00;102080.81;5114152;28;20054;-28
2022/04/14 05:13:46;;;;;;;8.43;4.18;;;;;;;8.67;100.00;102077.44;5105550;28;20047;-29
2022/04/14 05:16:14;;;;;;;8.90;4.97;;;;;;;8.65;100.00;102080.47;5113823;28;20118;-28
2022/04/14 05:18:42;;;;;;;9.70;5.10;;;;;;;8.62;100.00;102087.38;5112968;28;20044;-27
2022/04/14 05:21:10;;;;;;;4.57;3.10;;;;;;;8.63;100.00;102100.19;5113798;28;20146;-27
2022/04/14 05:23:38;;;;;;;4.72;2.95;;;;;;;8.63;100.00;102099.34;5113659;27;20059;-27
2022/04/14 05:26:07;;;;;;;6.10;3.55;;;;;;;8.61;100.00;102102.38;5113092;28;20060;-27
2022/04/14 05:28:35;;;;;;;4.57;2.92;;;;;;;8.62;100.00;102111.59;5113797;28;20043;-28
2022/04/14 05:31:03;;;;;;;11.13;5.15;;;;;;;8.62;100.00;102114.38;5113636;28;20046;-28
2022/04/14 05:33:31;;;;;;;7.93;4.00;;;;;;;8.63;100.00;102116.91;5109906;28;20082;-27
2022/04/14 05:35:58;;;;;;;11.43;4.95;;;;;;;8.64;100.00;102112.16;5112392;28;20058;-28
2022/04/14 05:38:27;;;;;;;9.05;4.47;;;;;;;8.67;100.00;102125.56;5112542;28;20059;-26
2022/04/14 05:40:55;;;;;;;7.72;3.95;;;;;;;8.70;100.00;102121.44;5111655;28;20096;-27
2022/04/14 05:43:27;;;;;;;8.52;4.38;;;;;;;8.74;100.00;102139.31;5112340;28;20100;-28
2022/04/14 05:45:55;;;;;;;8.15;4.30;;;;;;;8.75;100.00;102130.72;5111492;28;20043;-27
2022/04/14 05:48:23;;;;;;;6.00;3.50;;;;;;;8.78;100.00;102133.00;5111854;28;20058;-26
2022/04/14 05:50:51;;;;;;;9.13;4.28;;;;;;;8.83;100.00;102133.03;5110225;28;20079;-28
2022/04/14 05:53:26;;;;;;;6.07;4.13;;;;;;;8.89;100.00;102133.97;5109152;28;20114;-27
2022/04/14 05:55:55;;;;;;;8.32;4.53;;;;;;;8.94;100.00;102134.03;5110949;28;20066;-28
2022/04/14 05:58:24;;;;;;;7.85;4.05;;;;;;;8.99;100.00;102131.34;5110797;28;20035;-27
2022/04/14 06:00:52;;;;;;;8.40;5.55;;;;;;;9.06;100.00;102131.13;5110293;28;20084;-27
2022/04/14 06:03:20;;;;;;;10.32;4.95;;;;;;;9.11;100.00;102132.06;5110855;28;20368;-28
2022/04/14 06:05:48;;;;;;;16.48;5.85;;;;;;;9.16;100.00;102134.06;5112082;28;20035;-27
2022/04/14 06:08:15;;;;;;;8.02;4.90;;;;;;;9.20;100.00;102138.84;5110835;28;20048;-27
2022/04/14 06:10:43;;;;;;;7.53;4.65;;;;;;;9.25;100.00;102129.72;5111829;28;20510;-27
2022/04/14 06:13:11;;;;;;;7.97;4.65;;;;;;;9.29;100.00;102131.72;5112032;28;20039;-27
2022/04/14 06:15:40;;;;;;;11.18;5.18;;;;;;;9.35;100.00;102141.00;5110523;28;20397;-27
2022/04/14 06:18:08;;;;;;;10.98;4.75;;;;;;;9.41;100.00;102133.53;5111733;28;20521;-27
2022/04/14 06:20:36;;;;;;;11.43;6.00;;;;;;;9.48;100.00;102136.97;5111485;28;20078;-26
2022/04/14 06:23:04;;;;;;;8.00;4.65;;;;;;;9.54;100.00;102133.97;5109327;28;20435;-27
2022/04/14 06:25:33;;;;;;;7.72;4.30;;;;;;;9.62;100.00;102141.00;5111276;28;20054;-26
2022/04/14 06:28:00;;;;;;;11.43;5.80;;;;;;;9.69;100.00;102133.31;5111504;28;20051;-26
2022/04/14 06:30:28;;;;;;;10.02;5.97;;;;;;;9.76;100.00;102131.16;5110498;28;20531;-27
2022/04/14 06:32:59;;;;;;;9.35;5.53;;;;;;;9.84;100.00;102132.59;5111125;28;20055;-26
2022/04/14 06:35:28;;;;;;;12.57;6.18;;;;;;;9.90;100.00;102135.19;5111633;28;20412;-27
2022/04/14 06:37:56;;;;;;;9.75;6.32;;;;;;;9.99;100.00;102130.81;5110314;28;20046;-26
2022/04/14 06:40:24;;;;;;;12.40;5.38;;;;;;;10.09;100.00;102129.22;5111416;28;20055;-28
2022/04/14 06:43:01;;;;;;;11.30;6.22;;;;;;;10.19;100.00;102130.19;5107858;28;20429;-28
2022/04/14 06:45:31;;;;;;;10.75;6.22;;;;;;;10.34;100.00;102126.69;5111847;28;20484;-28
2022/04/14 06:48:00;;;;;;;9.50;6.13;;;;;;;10.51;100.00;102126.56;5111927;28;20117;-27
2022/04/14 06:50:28;;;;;;;12.65;7.38;;;;;;;10.64;100.00;102129.72;5111362;28;20036;-27
2022/04/14 06:52:56;;;;;;;11.35;7.25;;;;;;;10.84;100.00;102125.38;5111273;28;20057;-28
2022/04/14 06:55:25;;;;;;;14.55;8.40;;;;;;;11.05;100.00;102136.38;5111837;28;20043;-27
2022/04/14 06:57:53;;;;;;;12.98;7.50;;;;;;;11.33;100.00;102142.66;5110729;28;20156;-27
2022/04/14 07:00:21;;;;;;;12.80;7.50;;;;;;;11.91;100.00;102135.88;5111656;28;20061;-28
2022/04/14 07:02:50;;;;;;;12.75;8.27;;;;;;;12.58;100.00;102132.00;5111717;28;20047;-26
2022/04/14 07:05:20;;;;;;;17.80;8.40;;;;;;;13.16;100.00;102135.25;5111092;28;20054;-28
2022/04/14 07:07:47;;;;;;;12.57;7.72;;;;;;;13.70;100.00;102134.44;5112124;28;20055;-27
2022/04/14 07:10:15;;;;;;;14.02;7.40;;;;;;;14.29;100.00;102141.91;5111808;28;20122;-27
2022/04/14 07:12:46;;;;;;;11.18;6.40;;;;;;;14.94;100.00;102139.66;5110833;28;20094;-27
2022/04/14 07:15:14;;;;;;;10.75;6.45;;;;;;;15.58;100.00;102135.53;5110217;28;20071;-27
2022/04/14 07:17:42;;;;;;;10.57;6.43;;;;;;;16.21;100.00;102138.78;5111463;28;20050;-29
2022/04/14 07:20:10;;;;;;;10.65;6.47;;;;;;;16.87;100.00;102143.31;5110817;28;20510;-28
2022/04/14 07:22:44;;;;;;;9.38;6.00;;;;;;;17.29;100.00;102138.56;5111720;28;20047;-30
2022/04/14 07:25:12;;;;;;;10.20;6.60;;;;;;;17.51;100.00;102141.47;5110761;28;20040;-32
2022/04/14 07:27:40;;;;;;;10.73;6.63;;;;;;;17.83;100.00;102141.34;5111334;28;20051;-28
2022/04/14 07:30:09;;;;;;;9.18;6.00;;;;;;;18.17;100.00;102145.66;5111743;28;20035;-28
2022/04/14 07:32:37;;;;;;;9.13;5.28;;;;;;;18.50;100.00;102138.59;5110410;28;20040;-29
2022/04/14 07:35:06;;;;;;;9.23;5.47;;;;;;;18.93;100.00;102136.06;5100500;28;20039;-29
2022/04/14 07:37:36;;;;;;;7.38;5.25;;;;;;;19.37;100.00;102142.75;5111100;28;20327;-30
2022/04/14 07:40:07;;;;;;;8.13;5.32;;;;;;;19.90;100.00;102141.72;5110397;28;20128;-28
2022/04/14 07:42:36;;;;;;;8.35;5.32;;;;;;;20.38;95.03;102143.63;5110950;28;20039;-28
2022/04/14 07:45:04;;;;;;;8.90;5.47;;;;;;;20.45;92.05;102143.94;5111262;28;20052;-29
2022/04/14 07:47:39;;;;;;;7.47;4.35;;;;;;;20.58;90.37;102142.94;5099592;28;20051;-31
2022/04/14 07:50:07;;;;;;;7.15;5.00;;;;;;;20.83;89.14;102136.34;5107875;28;20495;-28
2022/04/14 07:52:44;;;;;;;8.43;5.10;;;;;;;21.24;85.21;102144.25;5109803;28;20047;-28
2022/04/14 07:55:18;;;;;;;6.78;4.35;;;;;;;21.40;82.22;102147.34;5109288;28;20063;-28
2022/04/14 07:57:47;;;;;;;8.27;4.78;;;;;;;21.60;81.26;102145.75;5111383;28;20092;-28
2022/04/14 08:00:16;;;;;;;9.70;5.63;;;;;;;21.95;77.93;102157.75;5110601;28;20580;-29
2022/04/14 08:02:53;;;;;;;8.10;5.20;;;;;;;22.25;76.53;102152.84;5111001;28;20044;-29
2022/04/14 08:05:22;;;;;;;8.00;4.75;;;;;;;22.77;74.17;102153.22;5110687;28;20435;-28
2022/04/14 08:07:50;;;;;;;7.00;4.95;;;;;;;23.11;70.78;102154.84;5110469;28;20039;-28
2022/04/14 08:10:19;;;;;;;6.47;4.40;;;;;;;23.34;69.11;102158.09;5110953;28;20051;-32
2022/04/14 08:12:48;;;;;;;6.60;5.03;;;;;;;23.53;67.52;102152.66;5110055;28;20232;-30
2022/04/14 08:15:15;;;;;;;6.07;4.30;;;;;;;23.79;65.78;102157.13;5109347;28;20100;-29
2022/04/14 08:17:44;;;;;;;5.70;3.65;;;;;;;23.77;64.52;102151.00;5110445;28;20520;-29
2022/04/14 08:20:14;;;;;;;7.35;4.55;;;;;;;23.83;63.57;102160.94;5110350;28;20142;-28
2022/04/14 08:22:50;;;;;;;7.53;4.97;;;;;;;23.85;61.32;102155.72;5109937;28;20043;-32
2022/04/14 08:25:21;;;;;;;7.53;4.40;;;;;;;24.14;61.67;102154.59;5107868;28;20100;-28
2022/04/14 08:27:49;;;;;;;7.97;4.75;;;;;;;24.24;59.00;102149.25;5114897;27;20051;-30
2022/04/14 08:30:19;;;;;;;7.75;4.45;;;;;;;23.84;57.98;102152.03;5113817;28;20123;-28
2022/04/14 08:32:48;;;;;;;5.93;4.15;;;;;;;23.72;59.50;102154.06;5114535;28;20043;-28
2022/04/14 08:35:17;;;;;;;7.35;4.78;;;;;;;23.94;59.06;102159.28;5114194;28;20040;-28
2022/04/14 08:37:46;;;;;;;6.10;4.32;;;;;;;24.23;58.78;102166.69;5110998;28;20059;-36
2022/04/14 08:40:15;;;;;;;7.53;4.28;;;;;;;24.57;57.13;102159.59;5113196;28;20059;-33
2022/04/14 08:42:52;;;;;;;6.97;4.10;;;;;;;24.90;54.70;102165.84;5113328;28;20352;-33
2022/04/14 08:45:25;;;;;;;6.75;3.92;;;;;;;24.85;53.90;102166.09;5113876;28;20485;-33
2022/04/14 08:47:54;;;;;;;7.03;4.22;;;;;;;24.77;54.53;102164.25;5114577;28;20070;-27
2022/04/14 08:50:23;;;;;;;7.35;4.45;;;;;;;24.93;54.38;102170.84;5113597;28;20530;-28
2022/04/14 08:52:52;;;;;;;5.85;4.20;;;;;;;24.93;53.09;102167.97;5114230;28;20058;-30
2022/04/14 08:55:20;;;;;;;6.60;4.03;;;;;;;25.00;53.79;102188.19;5114225;28;20385;-29
2022/04/14 08:57:50;;;;;;;7.80;5.05;;;;;;;25.37;50.88;102191.66;5102282;28;20036;-28
2022/04/14 09:00:19;;;;;;;7.50;4.75;;;;;;;25.70;49.90;102199.03;5114295;28;20326;-33
2022/04/14 09:02:49;;;;;;;5.93;4.57;;;;;;;25.91;48.53;102193.84;5114089;28;20481;-28
2022/04/14 09:05:18;;;;;;;5.88;4.10;;;;;;;25.97;48.60;102203.81;5113819;28;20106;-29
2022/04/14 09:07:48;;;;;;;6.68;4.32;;;;;;;25.93;48.03;102213.50;5113919;28;20606;-30
2022/04/14 09:10:16;;;;;;;6.55;4.63;;;;;;;25.96;47.26;102212.75;5114288;28;20538;-28
2022/04/14 09:12:45;;;;;;;7.72;4.30;;;;;;;25.86;46.86;102213.31;5112254;28;20051;-30
2022/04/14 09:15:14;;;;;;;5.75;3.90;;;;;;;24.99;48.01;102215.09;5113964;28;20451;-32
2022/04/14 09:17:42;;;;;;;6.43;4.28;;;;;;;24.58;49.91;102221.19;5112956;28;20044;-33
2022/04/14 09:20:33;;;;;;;7.43;4.45;;;;;;;24.72;47.21;102222.44;5113867;28;20478;-32
2022/04/14 09:23:12;;;;;;;6.32;4.35;;;;;;;25.00;49.13;102222.44;5113540;28;20039;-32
2022/04/14 09:25:40;;;;;;;4.97;3.75;;;;;;;25.37;48.65;102222.25;5113153;28;20078;-31
2022/04/14 09:28:09;;;;;;;5.82;3.97;;;;;;;25.61;47.99;102209.78;5113536;28;20066;-29
2022/04/14 09:30:39;;;;;;;7.15;4.82;;;;;;;25.77;47.44;102224.13;5110155;28;20048;-34
2022/04/14 09:33:16;;;;;;;7.55;5.18;;;;;;;25.85;45.97;102220.25;5113038;28;20040;-31
2022/04/14 09:36:09;;;;;;;7.10;4.72;;;;;;;25.86;45.63;102225.59;5112516;28;20648;-32
2022/04/14 09:38:55;;;;;;;7.90;4.68;;;;;;;25.87;44.75;102214.97;5112550;28;20054;-28
2022/04/14 09:41:37;;;;;;;10.25;6.05;;;;;;;25.71;45.23;102224.41;5094750;28;20143;-33
2022/04/14 09:44:08;;;;;;;10.18;6.40;;;;;;;25.85;46.08;102223.09;5111320;28;20105;-31
2022/04/14 09:46:39;;;;;;;6.45;5.00;;;;;;;26.03;45.40;102218.63;5101970;28;20040;-29
2022/04/14 09:49:09;;;;;;;7.90;5.53;;;;;;;25.85;45.16;102221.06;5110038;28;20040;-28
2022/04/14 09:51:38;;;;;;;7.25;5.10;;;;;;;25.71;45.09;102218.69;5113738;28;20115;-28
2022/04/14 09:54:15;;;;;;;7.55;5.43;;;;;;;25.69;44.02;102226.81;5111535;28;20050;-29
2022/04/14 09:56:48;;;;;;;7.43;5.68;;;;;;;25.54;44.65;102227.63;5113801;28;20044;-32
2022/04/14 09:59:17;;;;;;;7.50;4.47;;;;;;;25.33;45.50;102219.31;5111844;28;20143;-28
2022/04/14 10:01:48;;;;;;;6.82;4.82;;;;;;;25.44;45.43;102221.59;5111206;28;20054;-28
2022/04/14 10:04:32;;;;;;;7.30;4.68;;;;;;;25.64;42.95;102215.63;5112839;28;20062;-28
2022/04/14 10:07:12;;;;;;;7.30;5.22;;;;;;;25.65;44.09;102222.19;5109184;28;20051;-28
2022/04/14 10:09:42;;;;;;;7.57;5.38;;;;;;;25.51;44.81;102227.53;5112224;28;21028;-30
2022/04/14 10:12:29;;;;;;;7.22;5.28;;;;;;;25.51;43.22;102233.22;5113069;28;20050;-34
2022/04/14 10:15:07;;;;;;;7.90;5.50;;;;;;;25.56;43.75;102236.66;5112273;28;20035;-31
2022/04/14 10:17:38;;;;;;;7.82;5.85;;;;;;;25.60;44.16;102236.72;5101635;28;20055;-27
2022/04/14 10:20:08;;;;;;;7.80;4.70;;;;;;;25.77;44.44;102229.84;5109379;28;20043;-30
2022/04/14 10:22:37;;;;;;;7.18;5.20;;;;;;;26.13;43.71;102226.66;5112148;28;20495;-29
2022/04/14 10:25:07;;;;;;;8.15;5.53;;;;;;;26.42;42.13;102229.00;5112170;28;20039;-32
2022/04/14 10:27:37;;;;;;;8.30;6.30;;;;;;;26.56;41.31;102224.81;5112906;28;20048;-28
2022/04/14 10:30:07;;;;;;;6.87;5.27;;;;;;;26.45;41.39;102229.44;5111711;28;20051;-35
2022/04/14 10:32:36;;;;;;;6.03;4.65;;;;;;;26.43;41.29;102238.41;5112372;28;20134;-28
2022/04/14 10:35:08;;;;;;;7.47;5.90;;;;;;;26.43;41.38;102239.25;5111460;28;20135;-33
2022/04/14 10:37:42;;;;;;;8.88;6.13;;;;;;;26.39;40.77;102238.31;5112138;28;20080;-29
2022/04/14 10:40:11;;;;;;;8.50;5.57;;;;;;;26.32;41.46;102246.78;5112105;28;20051;-30
2022/04/14 10:42:45;;;;;;;8.90;6.32;;;;;;;26.34;41.22;102234.94;5111332;28;20147;-30
2022/04/14 10:45:17;;;;;;;8.88;5.75;;;;;;;26.20;41.53;102235.38;5112360;28;20089;-31
2022/04/14 10:47:57;;;;;;;9.82;6.13;;;;;;;26.13;40.68;102229.53;5111390;28;20139;-35
2022/04/14 10:50:27;;;;;;;7.70;5.82;;;;;;;26.08;41.40;102232.66;5111235;28;20065;-28
2022/04/14 10:53:11;;;;;;;8.15;5.75;;;;;;;26.22;40.25;102227.28;5111825;28;20051;-30
2022/04/14 10:55:44;;;;;;;9.10;6.80;;;;;;;26.25;40.44;102237.97;5112093;28;20051;-28
2022/04/14 10:58:49;;;;;;;8.63;6.68;;;;;;;26.31;38.72;102230.78;5109999;28;20064;-32
2022/04/14 11:01:37;;;;;;;8.13;5.72;;;;;;;26.26;40.42;102231.06;5111473;28;20077;-27
2022/04/14 11:04:23;;;;;;;9.07;7.07;;;;;;;26.30;39.35;102239.75;5111070;28;20116;-28
2022/04/14 11:06:52;;;;;;;8.85;6.30;;;;;;;26.37;40.00;102237.91;5109600;28;20067;-36
2022/04/14 11:09:45;;;;;;;10.13;6.65;;;;;;;26.40;39.69;102234.25;5100654;28;20412;-31
2022/04/14 11:12:14;;;;;;;7.45;5.10;;;;;;;26.34;40.66;102241.50;5110327;28;20111;-28
2022/04/14 11:14:45;;;;;;;8.18;5.72;;;;;;;26.38;40.13;102241.56;5111596;28;20059;-29
2022/04/14 11:17:57;;;;;;;8.68;5.60;;;;;;;26.23;38.49;102240.38;5110590;28;20045;-29
2022/04/14 11:20:58;;;;;;;9.40;5.65;;;;;;;25.89;39.28;102238.31;5105515;28;20409;-38
2022/04/14 11:23:28;;;;;;;7.00;4.68;;;;;;;25.72;41.29;102243.22;5111338;28;20135;-33
2022/04/14 11:26:08;;;;;;;6.05;4.57;;;;;;;25.76;40.89;102231.88;5110776;28;20086;-28
2022/04/14 11:28:37;;;;;;;7.10;5.43;;;;;;;25.82;41.06;102243.84;5111329;28;20075;-32
2022/04/14 11:31:22;;;;;;;8.05;5.13;;;;;;;25.84;41.56;102244.31;5111104;28;20518;-29
2022/04/14 11:33:51;;;;;;;7.38;5.40;;;;;;;25.79;41.11;102247.44;5111094;28;20130;-32
2022/04/14 11:36:25;;;;;;;7.45;5.63;;;;;;;25.72;40.34;102246.09;5111162;27;20493;-31
2022/04/14 11:39:01;;;;;;;8.98;5.65;;;;;;;25.57;40.89;102246.91;5110147;28;20373;-25